sensor_id;sensor_type;location;lat;lon;timestamp;P1;durP1;ratioP1;P2;durP2;ratioP2
79480;SDS011;68944;48.262;14.208;2023-08-20T00:00:19;14.05;;;8.00;;
79480;SDS011;68944;48.262;14.208;2023-08-20T00:02:46;14.13;;;7.10;;
79480;SDS011;68944;48.262;14.208;2023-08-20T00:05:12;15.35;;;6.97;;
79480;SDS011;68944;48.262;14.208;2023-08-20T00:07:38;12.85;;;7.38;;
79480;SDS011;68944;48.262;14.208;2023-08-20T00:10:04;13.13;;;7.07;;
79480;SDS011;68944;48.262;14.208;2023-08-20T00:12:31;10.48;;;6.72;;
79480;SDS011;68944;48.262;14.208;2023-08-20T00:15:03;16.90;;;7.15;;
79480;SDS011;68944;48.262;14.208;2023-08-20T00:17:35;12.07;;;6.55;;
79480;SDS011;68944;48.262;14.208;2023-08-20T00:20:03;10.15;;;6.55;;
79480;SDS011;68944;48.262;14.208;2023-08-20T00:22:36;11.68;;;6.88;;
79480;SDS011;68944;48.262;14.208;2023-08-20T00:25:02;10.90;;;7.28;;
79480;SDS011;68944;48.262;14.208;2023-08-20T00:27:29;11.02;;;6.53;;
79480;SDS011;68944;48.262;14.208;2023-08-20T00:29:55;14.13;;;6.80;;
79480;SDS011;68944;48.262;14.208;2023-08-20T00:32:20;15.25;;;7.18;;
79480;SDS011;68944;48.262;14.208;2023-08-20T00:34:46;12.88;;;6.90;;
79480;SDS011;68944;48.262;14.208;2023-08-20T00:37:12;11.88;;;7.05;;
79480;SDS011;68944;48.262;14.208;2023-08-20T00:39:37;11.07;;;7.10;;
79480;SDS011;68944;48.262;14.208;2023-08-20T00:42:03;13.40;;;7.18;;
79480;SDS011;68944;48.262;14.208;2023-08-20T00:44:30;13.13;;;7.40;;
79480;SDS011;68944;48.262;14.208;2023-08-20T00:46:55;14.10;;;7.55;;
79480;SDS011;68944;48.262;14.208;2023-08-20T00:49:21;13.65;;;7.90;;
79480;SDS011;68944;48.262;14.208;2023-08-20T00:51:47;15.50;;;7.97;;
79480;SDS011;68944;48.262;14.208;2023-08-20T00:54:14;12.80;;;7.38;;
79480;SDS011;68944;48.262;14.208;2023-08-20T00:56:40;14.55;;;8.80;;
79480;SDS011;68944;48.262;14.208;2023-08-20T00:59:05;13.57;;;8.15;;
79480;SDS011;68944;48.262;14.208;2023-08-20T01:01:31;16.83;;;8.32;;
79480;SDS011;68944;48.262;14.208;2023-08-20T01:03:57;12.57;;;7.50;;
79480;SDS011;68944;48.262;14.208;2023-08-20T01:09:27;14.30;;;8.40;;
79480;SDS011;68944;48.262;14.208;2023-08-20T01:12:01;17.52;;;8.73;;
79480;SDS011;68944;48.262;14.208;2023-08-20T01:14:29;14.98;;;8.15;;
79480;SDS011;68944;48.262;14.208;2023-08-20T01:16:54;15.10;;;8.18;;
79480;SDS011;68944;48.262;14.208;2023-08-20T01:19:20;14.45;;;8.85;;
79480;SDS011;68944;48.262;14.208;2023-08-20T01:29:41;16.88;;;8.95;;
79480;SDS011;68944;48.262;14.208;2023-08-20T01:32:07;15.27;;;9.07;;
79480;SDS011;68944;48.262;14.208;2023-08-20T01:34:33;21.10;;;9.90;;
79480;SDS011;68944;48.262;14.208;2023-08-20T01:36:59;13.07;;;8.73;;
79480;SDS011;68944;48.262;14.208;2023-08-20T01:39:24;13.77;;;8.52;;
79480;SDS011;68944;48.262;14.208;2023-08-20T01:41:50;14.57;;;8.90;;
79480;SDS011;68944;48.262;14.208;2023-08-20T01:44:15;13.23;;;8.45;;
79480;SDS011;68944;48.262;14.208;2023-08-20T01:46:41;17.70;;;9.52;;
79480;SDS011;68944;48.262;14.208;2023-08-20T01:49:06;13.32;;;8.77;;
79480;SDS011;68944;48.262;14.208;2023-08-20T01:51:32;14.57;;;9.00;;
79480;SDS011;68944;48.262;14.208;2023-08-20T01:53:57;12.77;;;8.88;;
79480;SDS011;68944;48.262;14.208;2023-08-20T01:56:23;12.90;;;8.18;;
79480;SDS011;68944;48.262;14.208;2023-08-20T01:58:48;13.18;;;8.20;;
79480;SDS011;68944;48.262;14.208;2023-08-20T02:01:14;15.38;;;8.85;;
79480;SDS011;68944;48.262;14.208;2023-08-20T02:03:39;14.75;;;9.18;;
79480;SDS011;68944;48.262;14.208;2023-08-20T02:06:05;15.60;;;9.23;;
79480;SDS011;68944;48.262;14.208;2023-08-20T02:08:30;15.23;;;8.35;;
79480;SDS011;68944;48.262;14.208;2023-08-20T02:11:03;14.40;;;8.60;;
79480;SDS011;68944;48.262;14.208;2023-08-20T02:13:29;14.40;;;8.02;;
79480;SDS011;68944;48.262;14.208;2023-08-20T02:16:02;13.40;;;8.45;;
79480;SDS011;68944;48.262;14.208;2023-08-20T02:18:29;18.40;;;9.10;;
79480;SDS011;68944;48.262;14.208;2023-08-20T02:20:55;11.70;;;7.78;;
79480;SDS011;68944;48.262;14.208;2023-08-20T02:23:20;14.07;;;8.45;;
79480;SDS011;68944;48.262;14.208;2023-08-20T02:25:46;15.93;;;8.93;;
79480;SDS011;68944;48.262;14.208;2023-08-20T02:28:12;14.95;;;8.25;;
79480;SDS011;68944;48.262;14.208;2023-08-20T02:30:41;13.45;;;8.23;;
79480;SDS011;68944;48.262;14.208;2023-08-20T02:33:08;12.98;;;8.27;;
79480;SDS011;68944;48.262;14.208;2023-08-20T02:35:35;13.13;;;8.57;;
79480;SDS011;68944;48.262;14.208;2023-08-20T02:38:01;12.25;;;8.00;;
79480;SDS011;68944;48.262;14.208;2023-08-20T02:40:26;15.10;;;8.60;;
79480;SDS011;68944;48.262;14.208;2023-08-20T02:42:52;15.63;;;8.50;;
79480;SDS011;68944;48.262;14.208;2023-08-20T02:45:17;15.80;;;7.95;;
79480;SDS011;68944;48.262;14.208;2023-08-20T02:47:43;13.23;;;7.00;;
79480;SDS011;68944;48.262;14.208;2023-08-20T02:50:08;13.60;;;8.18;;
79480;SDS011;68944;48.262;14.208;2023-08-20T02:52:34;13.57;;;7.95;;
79480;SDS011;68944;48.262;14.208;2023-08-20T02:55:00;12.90;;;7.95;;
79480;SDS011;68944;48.262;14.208;2023-08-20T02:57:25;11.40;;;8.05;;
79480;SDS011;68944;48.262;14.208;2023-08-20T02:59:51;13.52;;;8.55;;
79480;SDS011;68944;48.262;14.208;2023-08-20T03:02:16;15.18;;;8.85;;
79480;SDS011;68944;48.262;14.208;2023-08-20T03:04:42;13.77;;;9.25;;
79480;SDS011;68944;48.262;14.208;2023-08-20T03:07:08;13.82;;;9.20;;
79480;SDS011;68944;48.262;14.208;2023-08-20T03:09:34;12.98;;;8.57;;
79480;SDS011;68944;48.262;14.208;2023-08-20T03:11:59;14.90;;;8.85;;
79480;SDS011;68944;48.262;14.208;2023-08-20T03:14:24;13.30;;;8.35;;
79480;SDS011;68944;48.262;14.208;2023-08-20T03:16:50;13.70;;;7.75;;
79480;SDS011;68944;48.262;14.208;2023-08-20T03:19:15;13.18;;;7.82;;
79480;SDS011;68944;48.262;14.208;2023-08-20T03:21:41;12.52;;;7.93;;
79480;SDS011;68944;48.262;14.208;2023-08-20T03:24:07;15.75;;;8.40;;
79480;SDS011;68944;48.262;14.208;2023-08-20T03:26:33;15.85;;;8.93;;
79480;SDS011;68944;48.262;14.208;2023-08-20T03:28:58;19.25;;;10.98;;
79480;SDS011;68944;48.262;14.208;2023-08-20T03:31:24;28.08;;;20.08;;
79480;SDS011;68944;48.262;14.208;2023-08-20T03:33:50;22.73;;;13.77;;
79480;SDS011;68944;48.262;14.208;2023-08-20T03:36:16;17.88;;;11.10;;
79480;SDS011;68944;48.262;14.208;2023-08-20T03:38:41;14.70;;;8.85;;
79480;SDS011;68944;48.262;14.208;2023-08-20T03:41:07;16.10;;;9.93;;
79480;SDS011;68944;48.262;14.208;2023-08-20T03:43:34;16.23;;;9.23;;
79480;SDS011;68944;48.262;14.208;2023-08-20T03:46:01;13.93;;;8.70;;
79480;SDS011;68944;48.262;14.208;2023-08-20T03:48:26;21.88;;;10.98;;
79480;SDS011;68944;48.262;14.208;2023-08-20T03:50:52;17.23;;;9.85;;
79480;SDS011;68944;48.262;14.208;2023-08-20T03:53:17;16.30;;;9.10;;
79480;SDS011;68944;48.262;14.208;2023-08-20T03:55:49;15.52;;;8.90;;
79480;SDS011;68944;48.262;14.208;2023-08-20T03:58:15;13.63;;;8.60;;
79480;SDS011;68944;48.262;14.208;2023-08-20T04:00:41;15.50;;;9.02;;
79480;SDS011;68944;48.262;14.208;2023-08-20T04:03:08;12.55;;;8.77;;
79480;SDS011;68944;48.262;14.208;2023-08-20T04:05:37;14.60;;;8.60;;
79480;SDS011;68944;48.262;14.208;2023-08-20T04:08:03;16.95;;;10.07;;
79480;SDS011;68944;48.262;14.208;2023-08-20T04:10:29;16.70;;;9.18;;
79480;SDS011;68944;48.262;14.208;2023-08-20T04:12:56;13.15;;;8.82;;
79480;SDS011;68944;48.262;14.208;2023-08-20T04:15:23;16.80;;;10.13;;
79480;SDS011;68944;48.262;14.208;2023-08-20T04:17:48;15.68;;;9.45;;
79480;SDS011;68944;48.262;14.208;2023-08-20T04:20:15;17.52;;;9.85;;
79480;SDS011;68944;48.262;14.208;2023-08-20T04:22:40;14.40;;;9.13;;
79480;SDS011;68944;48.262;14.208;2023-08-20T04:25:07;15.07;;;8.60;;
79480;SDS011;68944;48.262;14.208;2023-08-20T04:27:33;13.27;;;8.82;;
79480;SDS011;68944;48.262;14.208;2023-08-20T04:29:58;14.35;;;8.10;;
79480;SDS011;68944;48.262;14.208;2023-08-20T04:32:24;14.65;;;9.40;;
79480;SDS011;68944;48.262;14.208;2023-08-20T04:34:50;23.20;;;9.23;;
79480;SDS011;68944;48.262;14.208;2023-08-20T04:37:19;15.48;;;10.00;;
79480;SDS011;68944;48.262;14.208;2023-08-20T04:39:44;15.98;;;10.38;;
79480;SDS011;68944;48.262;14.208;2023-08-20T04:42:10;15.70;;;10.45;;
79480;SDS011;68944;48.262;14.208;2023-08-20T04:44:36;15.80;;;9.52;;
79480;SDS011;68944;48.262;14.208;2023-08-20T04:47:01;16.27;;;10.27;;
79480;SDS011;68944;48.262;14.208;2023-08-20T04:49:29;15.35;;;10.85;;
79480;SDS011;68944;48.262;14.208;2023-08-20T04:51:55;16.13;;;9.85;;
79480;SDS011;68944;48.262;14.208;2023-08-20T04:54:21;13.25;;;9.60;;
79480;SDS011;68944;48.262;14.208;2023-08-20T04:56:46;15.40;;;10.27;;
79480;SDS011;68944;48.262;14.208;2023-08-20T04:59:12;12.82;;;8.68;;
79480;SDS011;68944;48.262;14.208;2023-08-20T05:01:50;19.75;;;12.85;;
79480;SDS011;68944;48.262;14.208;2023-08-20T05:04:19;14.95;;;10.10;;
79480;SDS011;68944;48.262;14.208;2023-08-20T05:06:44;18.67;;;8.82;;
79480;SDS011;68944;48.262;14.208;2023-08-20T05:09:09;13.85;;;9.45;;
79480;SDS011;68944;48.262;14.208;2023-08-20T05:11:35;12.90;;;8.70;;
79480;SDS011;68944;48.262;14.208;2023-08-20T05:14:01;13.98;;;9.38;;
79480;SDS011;68944;48.262;14.208;2023-08-20T05:16:26;15.07;;;9.20;;
79480;SDS011;68944;48.262;14.208;2023-08-20T05:18:52;13.10;;;9.32;;
79480;SDS011;68944;48.262;14.208;2023-08-20T05:21:17;14.50;;;9.05;;
79480;SDS011;68944;48.262;14.208;2023-08-20T05:23:43;13.95;;;9.52;;
79480;SDS011;68944;48.262;14.208;2023-08-20T05:26:08;13.82;;;9.65;;
79480;SDS011;68944;48.262;14.208;2023-08-20T05:28:35;14.32;;;8.70;;
79480;SDS011;68944;48.262;14.208;2023-08-20T05:31:00;15.15;;;8.80;;
79480;SDS011;68944;48.262;14.208;2023-08-20T05:33:26;14.38;;;9.68;;
79480;SDS011;68944;48.262;14.208;2023-08-20T05:35:53;14.80;;;11.07;;
79480;SDS011;68944;48.262;14.208;2023-08-20T05:38:19;19.55;;;12.60;;
79480;SDS011;68944;48.262;14.208;2023-08-20T05:40:46;14.52;;;10.63;;
79480;SDS011;68944;48.262;14.208;2023-08-20T05:43:12;17.98;;;10.38;;
79480;SDS011;68944;48.262;14.208;2023-08-20T05:45:38;17.63;;;11.40;;
79480;SDS011;68944;48.262;14.208;2023-08-20T05:48:04;17.52;;;10.75;;
79480;SDS011;68944;48.262;14.208;2023-08-20T05:50:29;17.95;;;11.13;;
79480;SDS011;68944;48.262;14.208;2023-08-20T05:52:55;16.80;;;11.15;;
79480;SDS011;68944;48.262;14.208;2023-08-20T05:55:21;14.98;;;10.18;;
79480;SDS011;68944;48.262;14.208;2023-08-20T05:57:46;17.33;;;10.73;;
79480;SDS011;68944;48.262;14.208;2023-08-20T06:00:12;13.40;;;9.98;;
79480;SDS011;68944;48.262;14.208;2023-08-20T06:02:40;16.20;;;11.40;;
79480;SDS011;68944;48.262;14.208;2023-08-20T06:05:06;15.98;;;10.63;;
79480;SDS011;68944;48.262;14.208;2023-08-20T06:07:33;18.15;;;10.40;;
79480;SDS011;68944;48.262;14.208;2023-08-20T06:09:58;37.20;;;23.80;;
79480;SDS011;68944;48.262;14.208;2023-08-20T06:12:24;19.23;;;13.10;;
79480;SDS011;68944;48.262;14.208;2023-08-20T06:14:49;16.63;;;11.73;;
79480;SDS011;68944;48.262;14.208;2023-08-20T06:17:15;15.05;;;10.57;;
79480;SDS011;68944;48.262;14.208;2023-08-20T06:19:41;15.70;;;10.13;;
79480;SDS011;68944;48.262;14.208;2023-08-20T06:22:07;15.55;;;10.27;;
79480;SDS011;68944;48.262;14.208;2023-08-20T06:24:32;16.77;;;10.90;;
79480;SDS011;68944;48.262;14.208;2023-08-20T06:26:58;16.15;;;9.63;;
79480;SDS011;68944;48.262;14.208;2023-08-20T06:29:24;16.80;;;10.43;;
79480;SDS011;68944;48.262;14.208;2023-08-20T06:31:49;16.55;;;10.85;;
79480;SDS011;68944;48.262;14.208;2023-08-20T06:34:15;16.73;;;10.98;;
79480;SDS011;68944;48.262;14.208;2023-08-20T06:36:41;15.13;;;10.45;;
79480;SDS011;68944;48.262;14.208;2023-08-20T06:39:06;23.27;;;15.20;;
79480;SDS011;68944;48.262;14.208;2023-08-20T06:41:32;19.77;;;13.48;;
79480;SDS011;68944;48.262;14.208;2023-08-20T06:43:59;13.27;;;9.82;;
79480;SDS011;68944;48.262;14.208;2023-08-20T06:46:24;23.23;;;10.35;;
79480;SDS011;68944;48.262;14.208;2023-08-20T06:48:50;13.30;;;9.23;;
79480;SDS011;68944;48.262;14.208;2023-08-20T06:51:18;16.83;;;9.30;;
79480;SDS011;68944;48.262;14.208;2023-08-20T06:53:45;15.43;;;9.95;;
79480;SDS011;68944;48.262;14.208;2023-08-20T06:56:10;15.60;;;9.25;;
79480;SDS011;68944;48.262;14.208;2023-08-20T06:58:37;16.00;;;8.95;;
79480;SDS011;68944;48.262;14.208;2023-08-20T07:01:04;15.27;;;9.13;;
79480;SDS011;68944;48.262;14.208;2023-08-20T07:03:33;13.93;;;9.65;;
79480;SDS011;68944;48.262;14.208;2023-08-20T07:05:59;15.05;;;9.50;;
79480;SDS011;68944;48.262;14.208;2023-08-20T07:08:24;14.43;;;9.35;;
79480;SDS011;68944;48.262;14.208;2023-08-20T07:10:50;12.52;;;8.50;;
79480;SDS011;68944;48.262;14.208;2023-08-20T07:13:15;13.48;;;9.32;;
79480;SDS011;68944;48.262;14.208;2023-08-20T07:15:41;16.17;;;9.75;;
79480;SDS011;68944;48.262;14.208;2023-08-20T07:18:06;14.75;;;9.63;;
79480;SDS011;68944;48.262;14.208;2023-08-20T07:20:32;13.75;;;9.43;;
79480;SDS011;68944;48.262;14.208;2023-08-20T07:22:58;14.30;;;9.20;;
79480;SDS011;68944;48.262;14.208;2023-08-20T07:25:23;15.57;;;9.13;;
79480;SDS011;68944;48.262;14.208;2023-08-20T07:27:49;16.35;;;9.45;;
79480;SDS011;68944;48.262;14.208;2023-08-20T07:30:16;18.15;;;10.40;;
79480;SDS011;68944;48.262;14.208;2023-08-20T07:32:41;15.70;;;9.55;;
79480;SDS011;68944;48.262;14.208;2023-08-20T07:35:07;15.57;;;9.70;;
79480;SDS011;68944;48.262;14.208;2023-08-20T07:37:33;17.45;;;10.20;;
79480;SDS011;68944;48.262;14.208;2023-08-20T07:39:59;13.55;;;9.60;;
79480;SDS011;68944;48.262;14.208;2023-08-20T07:42:24;14.50;;;8.93;;
79480;SDS011;68944;48.262;14.208;2023-08-20T07:44:50;12.60;;;8.68;;
79480;SDS011;68944;48.262;14.208;2023-08-20T07:47:15;12.38;;;8.20;;
79480;SDS011;68944;48.262;14.208;2023-08-20T07:49:41;11.38;;;8.10;;
79480;SDS011;68944;48.262;14.208;2023-08-20T07:52:06;13.13;;;8.43;;
79480;SDS011;68944;48.262;14.208;2023-08-20T07:54:32;13.57;;;8.80;;
79480;SDS011;68944;48.262;14.208;2023-08-20T07:56:57;12.73;;;8.23;;
79480;SDS011;68944;48.262;14.208;2023-08-20T07:59:23;14.45;;;8.48;;
79480;SDS011;68944;48.262;14.208;2023-08-20T08:01:48;12.75;;;7.88;;
79480;SDS011;68944;48.262;14.208;2023-08-20T08:04:14;13.80;;;8.63;;
79480;SDS011;68944;48.262;14.208;2023-08-20T08:06:40;14.02;;;7.90;;
79480;SDS011;68944;48.262;14.208;2023-08-20T08:09:18;14.57;;;9.10;;
79480;SDS011;68944;48.262;14.208;2023-08-20T08:14:17;12.50;;;7.85;;
79480;SDS011;68944;48.262;14.208;2023-08-20T08:16:44;10.90;;;8.05;;
79480;SDS011;68944;48.262;14.208;2023-08-20T08:19:10;13.02;;;8.32;;
79480;SDS011;68944;48.262;14.208;2023-08-20T08:21:36;13.00;;;7.75;;
79480;SDS011;68944;48.262;14.208;2023-08-20T08:24:01;15.65;;;7.60;;
79480;SDS011;68944;48.262;14.208;2023-08-20T08:26:27;12.73;;;7.20;;
79480;SDS011;68944;48.262;14.208;2023-08-20T08:28:53;14.38;;;8.18;;
79480;SDS011;68944;48.262;14.208;2023-08-20T08:31:19;10.70;;;7.32;;
79480;SDS011;68944;48.262;14.208;2023-08-20T08:33:44;14.23;;;8.00;;
79480;SDS011;68944;48.262;14.208;2023-08-20T08:36:10;13.88;;;8.15;;
79480;SDS011;68944;48.262;14.208;2023-08-20T08:38:36;13.18;;;8.10;;
79480;SDS011;68944;48.262;14.208;2023-08-20T08:41:05;13.45;;;8.70;;
79480;SDS011;68944;48.262;14.208;2023-08-20T08:43:36;16.35;;;10.02;;
79480;SDS011;68944;48.262;14.208;2023-08-20T08:46:03;40.60;;;26.45;;
79480;SDS011;68944;48.262;14.208;2023-08-20T08:48:41;15.38;;;9.75;;
79480;SDS011;68944;48.262;14.208;2023-08-20T08:51:08;15.70;;;9.00;;
79480;SDS011;68944;48.262;14.208;2023-08-20T08:53:34;14.23;;;8.45;;
79480;SDS011;68944;48.262;14.208;2023-08-20T08:56:00;13.45;;;7.65;;
79480;SDS011;68944;48.262;14.208;2023-08-20T08:58:27;12.73;;;7.47;;
79480;SDS011;68944;48.262;14.208;2023-08-20T09:00:53;14.05;;;7.60;;
79480;SDS011;68944;48.262;14.208;2023-08-20T09:03:19;11.25;;;7.68;;
79480;SDS011;68944;48.262;14.208;2023-08-20T09:05:45;12.63;;;7.32;;
79480;SDS011;68944;48.262;14.208;2023-08-20T09:08:21;12.38;;;7.35;;
79480;SDS011;68944;48.262;14.208;2023-08-20T09:10:51;13.18;;;7.65;;
79480;SDS011;68944;48.262;14.208;2023-08-20T09:13:22;13.07;;;7.70;;
79480;SDS011;68944;48.262;14.208;2023-08-20T09:15:52;11.80;;;7.75;;
79480;SDS011;68944;48.262;14.208;2023-08-20T09:18:18;14.27;;;7.32;;
79480;SDS011;68944;48.262;14.208;2023-08-20T09:20:44;10.75;;;7.20;;
79480;SDS011;68944;48.262;14.208;2023-08-20T09:23:12;14.32;;;7.60;;
79480;SDS011;68944;48.262;14.208;2023-08-20T09:25:39;15.27;;;7.53;;
79480;SDS011;68944;48.262;14.208;2023-08-20T09:28:05;31.83;;;21.40;;
79480;SDS011;68944;48.262;14.208;2023-08-20T09:30:31;12.18;;;7.30;;
79480;SDS011;68944;48.262;14.208;2023-08-20T09:33:03;12.25;;;7.78;;
79480;SDS011;68944;48.262;14.208;2023-08-20T09:35:30;12.35;;;7.93;;
79480;SDS011;68944;48.262;14.208;2023-08-20T09:37:59;9.45;;;6.25;;
79480;SDS011;68944;48.262;14.208;2023-08-20T09:40:26;12.95;;;7.65;;
79480;SDS011;68944;48.262;14.208;2023-08-20T09:42:52;12.38;;;8.00;;
79480;SDS011;68944;48.262;14.208;2023-08-20T09:45:19;13.27;;;7.22;;
79480;SDS011;68944;48.262;14.208;2023-08-20T09:47:45;15.73;;;8.50;;
79480;SDS011;68944;48.262;14.208;2023-08-20T09:50:19;13.00;;;7.60;;
79480;SDS011;68944;48.262;14.208;2023-08-20T09:53:11;12.32;;;7.20;;
79480;SDS011;68944;48.262;14.208;2023-08-20T09:55:38;13.18;;;7.53;;
79480;SDS011;68944;48.262;14.208;2023-08-20T09:58:04;10.20;;;6.38;;
79480;SDS011;68944;48.262;14.208;2023-08-20T10:00:34;11.80;;;6.68;;
79480;SDS011;68944;48.262;14.208;2023-08-20T10:03:00;12.35;;;7.95;;
79480;SDS011;68944;48.262;14.208;2023-08-20T10:05:27;11.95;;;6.78;;
79480;SDS011;68944;48.262;14.208;2023-08-20T10:07:53;10.20;;;6.63;;
79480;SDS011;68944;48.262;14.208;2023-08-20T10:10:20;19.05;;;8.15;;
79480;SDS011;68944;48.262;14.208;2023-08-20T10:12:46;11.93;;;6.30;;
79480;SDS011;68944;48.262;14.208;2023-08-20T10:15:13;32.00;;;19.75;;
79480;SDS011;68944;48.262;14.208;2023-08-20T10:17:42;11.23;;;7.80;;
79480;SDS011;68944;48.262;14.208;2023-08-20T10:20:09;11.27;;;7.15;;
79480;SDS011;68944;48.262;14.208;2023-08-20T10:22:44;17.40;;;8.05;;
79480;SDS011;68944;48.262;14.208;2023-08-20T10:25:11;15.70;;;11.13;;
79480;SDS011;68944;48.262;14.208;2023-08-20T10:27:46;13.52;;;8.70;;
79480;SDS011;68944;48.262;14.208;2023-08-20T10:30:18;13.15;;;7.88;;
79480;SDS011;68944;48.262;14.208;2023-08-20T10:32:53;31.65;;;7.70;;
79480;SDS011;68944;48.262;14.208;2023-08-20T10:35:23;11.27;;;7.03;;
79480;SDS011;68944;48.262;14.208;2023-08-20T10:38:01;14.73;;;7.28;;
79480;SDS011;68944;48.262;14.208;2023-08-20T10:46:02;10.45;;;6.35;;
79480;SDS011;68944;48.262;14.208;2023-08-20T10:48:29;15.60;;;7.32;;
79480;SDS011;68944;48.262;14.208;2023-08-20T10:50:56;11.00;;;6.45;;
79480;SDS011;68944;48.262;14.208;2023-08-20T10:53:22;12.80;;;6.70;;
79480;SDS011;68944;48.262;14.208;2023-08-20T10:55:48;9.15;;;6.07;;
79480;SDS011;68944;48.262;14.208;2023-08-20T10:58:14;11.05;;;6.45;;
79480;SDS011;68944;48.262;14.208;2023-08-20T11:00:40;11.07;;;6.05;;
79480;SDS011;68944;48.262;14.208;2023-08-20T11:03:07;11.75;;;6.90;;
79480;SDS011;68944;48.262;14.208;2023-08-20T11:05:33;12.45;;;6.60;;
79480;SDS011;68944;48.262;14.208;2023-08-20T11:07:59;13.93;;;6.40;;
79480;SDS011;68944;48.262;14.208;2023-08-20T11:10:26;15.23;;;7.00;;
79480;SDS011;68944;48.262;14.208;2023-08-20T11:12:52;11.80;;;6.57;;
79480;SDS011;68944;48.262;14.208;2023-08-20T11:15:17;9.55;;;6.00;;
79480;SDS011;68944;48.262;14.208;2023-08-20T11:17:47;9.80;;;5.60;;
79480;SDS011;68944;48.262;14.208;2023-08-20T11:20:16;11.25;;;6.03;;
79480;SDS011;68944;48.262;14.208;2023-08-20T11:25:10;10.32;;;5.55;;
79480;SDS011;68944;48.262;14.208;2023-08-20T11:27:43;11.35;;;6.35;;
79480;SDS011;68944;48.262;14.208;2023-08-20T11:30:09;9.15;;;5.68;;
79480;SDS011;68944;48.262;14.208;2023-08-20T11:35:03;9.20;;;5.63;;
79480;SDS011;68944;48.262;14.208;2023-08-20T11:37:30;12.13;;;5.43;;
79480;SDS011;68944;48.262;14.208;2023-08-20T11:39:56;10.45;;;5.55;;
79480;SDS011;68944;48.262;14.208;2023-08-20T11:42:21;8.98;;;5.35;;
79480;SDS011;68944;48.262;14.208;2023-08-20T11:44:47;11.48;;;5.65;;
79480;SDS011;68944;48.262;14.208;2023-08-20T11:47:16;10.27;;;5.00;;
79480;SDS011;68944;48.262;14.208;2023-08-20T11:49:42;8.98;;;5.38;;
79480;SDS011;68944;48.262;14.208;2023-08-20T11:52:08;9.20;;;4.80;;
79480;SDS011;68944;48.262;14.208;2023-08-20T11:54:34;10.55;;;4.65;;
79480;SDS011;68944;48.262;14.208;2023-08-20T11:57:02;8.77;;;4.95;;
79480;SDS011;68944;48.262;14.208;2023-08-20T11:59:29;15.43;;;4.85;;
79480;SDS011;68944;48.262;14.208;2023-08-20T12:01:56;10.13;;;5.20;;
79480;SDS011;68944;48.262;14.208;2023-08-20T12:04:25;12.07;;;7.22;;
79480;SDS011;68944;48.262;14.208;2023-08-20T12:07:03;23.00;;;15.23;;
79480;SDS011;68944;48.262;14.208;2023-08-20T12:09:30;8.55;;;5.05;;
79480;SDS011;68944;48.262;14.208;2023-08-20T12:11:56;9.82;;;4.95;;
79480;SDS011;68944;48.262;14.208;2023-08-20T12:14:23;8.75;;;4.80;;
79480;SDS011;68944;48.262;14.208;2023-08-20T12:16:49;11.02;;;5.18;;
79480;SDS011;68944;48.262;14.208;2023-08-20T12:19:16;10.88;;;4.93;;
79480;SDS011;68944;48.262;14.208;2023-08-20T12:21:42;11.23;;;4.72;;
79480;SDS011;68944;48.262;14.208;2023-08-20T12:24:11;8.20;;;4.38;;
79480;SDS011;68944;48.262;14.208;2023-08-20T12:26:37;8.90;;;5.03;;
79480;SDS011;68944;48.262;14.208;2023-08-20T12:29:03;10.20;;;4.88;;
79480;SDS011;68944;48.262;14.208;2023-08-20T12:31:29;10.90;;;4.57;;
79480;SDS011;68944;48.262;14.208;2023-08-20T12:33:54;8.63;;;4.60;;
79480;SDS011;68944;48.262;14.208;2023-08-20T12:36:20;7.38;;;4.20;;
79480;SDS011;68944;48.262;14.208;2023-08-20T12:38:45;7.65;;;4.38;;
79480;SDS011;68944;48.262;14.208;2023-08-20T12:41:11;10.07;;;4.68;;
79480;SDS011;68944;48.262;14.208;2023-08-20T12:43:36;11.80;;;4.43;;
79480;SDS011;68944;48.262;14.208;2023-08-20T12:46:02;11.25;;;5.28;;
79480;SDS011;68944;48.262;14.208;2023-08-20T12:48:28;8.75;;;4.28;;
79480;SDS011;68944;48.262;14.208;2023-08-20T12:50:55;9.02;;;4.78;;
79480;SDS011;68944;48.262;14.208;2023-08-20T12:53:20;8.23;;;4.50;;
79480;SDS011;68944;48.262;14.208;2023-08-20T12:55:46;11.75;;;4.72;;
79480;SDS011;68944;48.262;14.208;2023-08-20T12:58:12;8.73;;;4.53;;
79480;SDS011;68944;48.262;14.208;2023-08-20T13:00:37;9.07;;;4.60;;
79480;SDS011;68944;48.262;14.208;2023-08-20T13:03:04;9.30;;;4.55;;
79480;SDS011;68944;48.262;14.208;2023-08-20T13:05:30;9.60;;;4.55;;
79480;SDS011;68944;48.262;14.208;2023-08-20T13:07:56;9.07;;;4.45;;
79480;SDS011;68944;48.262;14.208;2023-08-20T13:10:22;7.50;;;4.15;;
79480;SDS011;68944;48.262;14.208;2023-08-20T13:12:48;9.30;;;4.32;;
79480;SDS011;68944;48.262;14.208;2023-08-20T13:15:17;8.70;;;4.38;;
79480;SDS011;68944;48.262;14.208;2023-08-20T13:17:44;8.30;;;4.07;;
79480;SDS011;68944;48.262;14.208;2023-08-20T13:22:37;8.00;;;4.15;;
79480;SDS011;68944;48.262;14.208;2023-08-20T13:25:02;7.55;;;4.05;;
79480;SDS011;68944;48.262;14.208;2023-08-20T13:27:29;8.88;;;4.28;;
79480;SDS011;68944;48.262;14.208;2023-08-20T13:29:56;7.82;;;3.85;;
79480;SDS011;68944;48.262;14.208;2023-08-20T13:32:22;9.65;;;3.80;;
79480;SDS011;68944;48.262;14.208;2023-08-20T13:34:48;7.32;;;3.70;;
79480;SDS011;68944;48.262;14.208;2023-08-20T13:37:14;9.82;;;3.70;;
79480;SDS011;68944;48.262;14.208;2023-08-20T13:39:40;7.50;;;3.90;;
79480;SDS011;68944;48.262;14.208;2023-08-20T13:42:05;7.95;;;4.00;;
79480;SDS011;68944;48.262;14.208;2023-08-20T13:44:31;7.80;;;4.45;;
79480;SDS011;68944;48.262;14.208;2023-08-20T13:46:56;8.73;;;4.38;;
79480;SDS011;68944;48.262;14.208;2023-08-20T13:49:22;8.02;;;4.18;;
79480;SDS011;68944;48.262;14.208;2023-08-20T13:51:47;8.88;;;4.25;;
79480;SDS011;68944;48.262;14.208;2023-08-20T13:54:12;7.75;;;3.90;;
79480;SDS011;68944;48.262;14.208;2023-08-20T13:56:38;9.95;;;3.50;;
79480;SDS011;68944;48.262;14.208;2023-08-20T13:59:03;8.07;;;3.50;;
79480;SDS011;68944;48.262;14.208;2023-08-20T14:01:30;8.98;;;3.35;;
79480;SDS011;68944;48.262;14.208;2023-08-20T14:03:56;7.20;;;3.10;;
79480;SDS011;68944;48.262;14.208;2023-08-20T14:06:22;7.43;;;3.30;;
79480;SDS011;68944;48.262;14.208;2023-08-20T14:08:47;6.93;;;3.38;;
79480;SDS011;68944;48.262;14.208;2023-08-20T14:11:13;7.93;;;3.22;;
79480;SDS011;68944;48.262;14.208;2023-08-20T14:13:39;7.28;;;3.30;;
79480;SDS011;68944;48.262;14.208;2023-08-20T14:16:05;9.90;;;3.05;;
79480;SDS011;68944;48.262;14.208;2023-08-20T14:18:30;7.10;;;3.30;;
79480;SDS011;68944;48.262;14.208;2023-08-20T14:20:56;7.45;;;3.10;;
79480;SDS011;68944;48.262;14.208;2023-08-20T14:23:21;8.55;;;3.10;;
79480;SDS011;68944;48.262;14.208;2023-08-20T14:25:47;7.15;;;3.10;;
79480;SDS011;68944;48.262;14.208;2023-08-20T14:28:12;8.23;;;3.22;;
79480;SDS011;68944;48.262;14.208;2023-08-20T14:30:38;7.40;;;3.22;;
79480;SDS011;68944;48.262;14.208;2023-08-20T14:33:04;7.45;;;3.28;;
79480;SDS011;68944;48.262;14.208;2023-08-20T14:35:31;6.93;;;3.10;;
79480;SDS011;68944;48.262;14.208;2023-08-20T14:37:57;6.70;;;3.22;;
79480;SDS011;68944;48.262;14.208;2023-08-20T14:40:22;8.57;;;3.38;;
79480;SDS011;68944;48.262;14.208;2023-08-20T14:42:49;7.00;;;3.35;;